sensor_id;sensor_type;location;lat;lon;timestamp;P1;durP1;ratioP1;P2;durP2;ratioP2
39750;SDS011;37579;51.074;17.004;2024-03-07T00:00:48;6.55;;;4.75;;
39750;SDS011;37579;51.074;17.004;2024-03-07T00:03:13;10.13;;;5.13;;
39750;SDS011;37579;51.074;17.004;2024-03-07T00:05:39;7.03;;;4.85;;
39750;SDS011;37579;51.074;17.004;2024-03-07T00:08:05;6.45;;;4.47;;
39750;SDS011;37579;51.074;17.004;2024-03-07T00:10:31;6.43;;;4.75;;
39750;SDS011;37579;51.074;17.004;2024-03-07T00:12:57;7.53;;;5.07;;
39750;SDS011;37579;51.074;17.004;2024-03-07T00:15:23;7.63;;;4.63;;
39750;SDS011;37579;51.074;17.004;2024-03-07T00:17:48;8.63;;;5.07;;
39750;SDS011;37579;51.074;17.004;2024-03-07T00:20:14;6.88;;;4.25;;
39750;SDS011;37579;51.074;17.004;2024-03-07T00:22:40;6.03;;;4.80;;
39750;SDS011;37579;51.074;17.004;2024-03-07T00:25:06;7.07;;;4.43;;
39750;SDS011;37579;51.074;17.004;2024-03-07T00:27:34;5.63;;;4.53;;
39750;SDS011;37579;51.074;17.004;2024-03-07T00:30:01;6.68;;;4.53;;
39750;SDS011;37579;51.074;17.004;2024-03-07T00:32:27;6.18;;;4.80;;
39750;SDS011;37579;51.074;17.004;2024-03-07T00:34:55;8.32;;;4.72;;
39750;SDS011;37579;51.074;17.004;2024-03-07T00:37:22;9.13;;;4.90;;
39750;SDS011;37579;51.074;17.004;2024-03-07T00:39:50;7.60;;;4.63;;
39750;SDS011;37579;51.074;17.004;2024-03-07T00:42:15;6.45;;;4.97;;
39750;SDS011;37579;51.074;17.004;2024-03-07T00:44:42;6.05;;;4.32;;
39750;SDS011;37579;51.074;17.004;2024-03-07T00:47:08;6.88;;;4.72;;
39750;SDS011;37579;51.074;17.004;2024-03-07T00:49:34;6.07;;;4.45;;
39750;SDS011;37579;51.074;17.004;2024-03-07T00:52:00;6.40;;;4.38;;
39750;SDS011;37579;51.074;17.004;2024-03-07T00:54:26;7.07;;;4.60;;
39750;SDS011;37579;51.074;17.004;2024-03-07T00:56:52;6.47;;;4.50;;
39750;SDS011;37579;51.074;17.004;2024-03-07T00:59:19;7.20;;;4.88;;
39750;SDS011;37579;51.074;17.004;2024-03-07T01:01:45;6.50;;;4.70;;
39750;SDS011;37579;51.074;17.004;2024-03-07T01:04:10;6.53;;;4.55;;
39750;SDS011;37579;51.074;17.004;2024-03-07T01:06:37;6.18;;;4.50;;
39750;SDS011;37579;51.074;17.004;2024-03-07T01:09:03;5.88;;;4.28;;
39750;SDS011;37579;51.074;17.004;2024-03-07T01:11:29;6.03;;;4.53;;
39750;SDS011;37579;51.074;17.004;2024-03-07T01:13:55;6.22;;;4.53;;
39750;SDS011;37579;51.074;17.004;2024-03-07T01:16:21;6.50;;;4.20;;
39750;SDS011;37579;51.074;17.004;2024-03-07T01:18:47;6.65;;;4.47;;
39750;SDS011;37579;51.074;17.004;2024-03-07T01:21:14;6.07;;;4.60;;
39750;SDS011;37579;51.074;17.004;2024-03-07T01:23:40;8.43;;;4.50;;
39750;SDS011;37579;51.074;17.004;2024-03-07T01:26:06;6.43;;;4.45;;
39750;SDS011;37579;51.074;17.004;2024-03-07T01:28:33;6.75;;;4.32;;
39750;SDS011;37579;51.074;17.004;2024-03-07T01:30:59;6.13;;;4.60;;
39750;SDS011;37579;51.074;17.004;2024-03-07T01:33:25;5.78;;;4.15;;
39750;SDS011;37579;51.074;17.004;2024-03-07T01:35:51;5.95;;;4.43;;
39750;SDS011;37579;51.074;17.004;2024-03-07T01:38:17;7.07;;;4.50;;
39750;SDS011;37579;51.074;17.004;2024-03-07T01:40:43;7.45;;;4.47;;
39750;SDS011;37579;51.074;17.004;2024-03-07T01:43:09;6.60;;;4.40;;
39750;SDS011;37579;51.074;17.004;2024-03-07T01:45:36;6.05;;;4.15;;
39750;SDS011;37579;51.074;17.004;2024-03-07T01:48:03;8.25;;;4.50;;
39750;SDS011;37579;51.074;17.004;2024-03-07T01:50:45;6.25;;;4.35;;
39750;SDS011;37579;51.074;17.004;2024-03-07T01:53:11;6.25;;;4.40;;
39750;SDS011;37579;51.074;17.004;2024-03-07T01:55:39;6.22;;;4.22;;
39750;SDS011;37579;51.074;17.004;2024-03-07T01:58:05;6.20;;;4.18;;
39750;SDS011;37579;51.074;17.004;2024-03-07T02:00:33;5.18;;;4.32;;
39750;SDS011;37579;51.074;17.004;2024-03-07T02:02:59;6.90;;;4.20;;
39750;SDS011;37579;51.074;17.004;2024-03-07T02:05:25;6.82;;;4.15;;
39750;SDS011;37579;51.074;17.004;2024-03-07T02:07:51;5.68;;;4.22;;
39750;SDS011;37579;51.074;17.004;2024-03-07T02:10:17;6.15;;;4.05;;
39750;SDS011;37579;51.074;17.004;2024-03-07T02:12:43;6.80;;;4.35;;
39750;SDS011;37579;51.074;17.004;2024-03-07T02:15:10;5.95;;;4.18;;
39750;SDS011;37579;51.074;17.004;2024-03-07T02:17:36;6.18;;;4.40;;
39750;SDS011;37579;51.074;17.004;2024-03-07T02:20:02;5.65;;;4.20;;
39750;SDS011;37579;51.074;17.004;2024-03-07T02:22:29;4.97;;;3.70;;
39750;SDS011;37579;51.074;17.004;2024-03-07T02:24:55;6.82;;;4.03;;
39750;SDS011;37579;51.074;17.004;2024-03-07T02:27:21;5.25;;;4.30;;
39750;SDS011;37579;51.074;17.004;2024-03-07T02:29:47;8.00;;;4.10;;
39750;SDS011;37579;51.074;17.004;2024-03-07T02:32:14;5.03;;;4.10;;
39750;SDS011;37579;51.074;17.004;2024-03-07T02:34:39;5.57;;;4.07;;
39750;SDS011;37579;51.074;17.004;2024-03-07T02:37:06;6.88;;;4.10;;
39750;SDS011;37579;51.074;17.004;2024-03-07T02:39:34;6.05;;;4.32;;
39750;SDS011;37579;51.074;17.004;2024-03-07T02:42:03;5.25;;;4.13;;
39750;SDS011;37579;51.074;17.004;2024-03-07T02:44:29;5.60;;;4.10;;
39750;SDS011;37579;51.074;17.004;2024-03-07T02:46:57;5.10;;;4.00;;
39750;SDS011;37579;51.074;17.004;2024-03-07T02:49:23;5.32;;;4.30;;
39750;SDS011;37579;51.074;17.004;2024-03-07T02:51:49;5.88;;;3.95;;
39750;SDS011;37579;51.074;17.004;2024-03-07T02:54:15;5.35;;;3.92;;
39750;SDS011;37579;51.074;17.004;2024-03-07T02:56:42;4.68;;;3.78;;
39750;SDS011;37579;51.074;17.004;2024-03-07T02:59:08;6.47;;;4.13;;
39750;SDS011;37579;51.074;17.004;2024-03-07T03:01:33;5.55;;;3.83;;
39750;SDS011;37579;51.074;17.004;2024-03-07T03:04:00;5.20;;;3.72;;
39750;SDS011;37579;51.074;17.004;2024-03-07T03:06:25;6.05;;;4.35;;
39750;SDS011;37579;51.074;17.004;2024-03-07T03:08:51;5.97;;;4.03;;
39750;SDS011;37579;51.074;17.004;2024-03-07T03:11:19;5.55;;;4.05;;
39750;SDS011;37579;51.074;17.004;2024-03-07T03:13:45;4.63;;;4.03;;
39750;SDS011;37579;51.074;17.004;2024-03-07T03:16:14;5.85;;;3.97;;
39750;SDS011;37579;51.074;17.004;2024-03-07T03:18:40;5.40;;;3.90;;
39750;SDS011;37579;51.074;17.004;2024-03-07T03:21:06;5.13;;;3.85;;
39750;SDS011;37579;51.074;17.004;2024-03-07T03:23:32;4.93;;;4.03;;
39750;SDS011;37579;51.074;17.004;2024-03-07T03:25:59;5.38;;;4.00;;
39750;SDS011;37579;51.074;17.004;2024-03-07T03:28:25;5.72;;;4.13;;
39750;SDS011;37579;51.074;17.004;2024-03-07T03:30:51;5.30;;;3.83;;
39750;SDS011;37579;51.074;17.004;2024-03-07T03:33:18;7.50;;;4.68;;
39750;SDS011;37579;51.074;17.004;2024-03-07T03:35:44;5.20;;;3.72;;
39750;SDS011;37579;51.074;17.004;2024-03-07T03:38:09;5.88;;;4.28;;
39750;SDS011;37579;51.074;17.004;2024-03-07T03:40:35;5.15;;;3.90;;
39750;SDS011;37579;51.074;17.004;2024-03-07T03:43:01;5.40;;;3.83;;
39750;SDS011;37579;51.074;17.004;2024-03-07T03:45:27;5.95;;;3.80;;
39750;SDS011;37579;51.074;17.004;2024-03-07T03:47:53;8.35;;;4.13;;
39750;SDS011;37579;51.074;17.004;2024-03-07T03:50:20;7.43;;;3.85;;
39750;SDS011;37579;51.074;17.004;2024-03-07T03:52:48;5.60;;;3.63;;
39750;SDS011;37579;51.074;17.004;2024-03-07T03:55:14;5.10;;;3.50;;
39750;SDS011;37579;51.074;17.004;2024-03-07T03:57:41;7.10;;;3.88;;
39750;SDS011;37579;51.074;17.004;2024-03-07T04:00:08;5.50;;;4.45;;
39750;SDS011;37579;51.074;17.004;2024-03-07T04:02:44;4.53;;;3.50;;
39750;SDS011;37579;51.074;17.004;2024-03-07T04:05:13;5.47;;;3.90;;
39750;SDS011;37579;51.074;17.004;2024-03-07T04:07:40;5.97;;;3.97;;
39750;SDS011;37579;51.074;17.004;2024-03-07T04:10:07;5.38;;;3.75;;
39750;SDS011;37579;51.074;17.004;2024-03-07T04:12:37;5.53;;;4.07;;
39750;SDS011;37579;51.074;17.004;2024-03-07T04:15:06;6.85;;;3.88;;
39750;SDS011;37579;51.074;17.004;2024-03-07T04:17:36;4.85;;;3.90;;
39750;SDS011;37579;51.074;17.004;2024-03-07T04:20:03;6.15;;;3.58;;
39750;SDS011;37579;51.074;17.004;2024-03-07T04:22:33;5.88;;;4.05;;
39750;SDS011;37579;51.074;17.004;2024-03-07T04:24:59;6.30;;;3.65;;
39750;SDS011;37579;51.074;17.004;2024-03-07T04:27:26;5.22;;;3.83;;
39750;SDS011;37579;51.074;17.004;2024-03-07T04:29:52;6.13;;;3.90;;
39750;SDS011;37579;51.074;17.004;2024-03-07T04:32:18;6.05;;;4.35;;
39750;SDS011;37579;51.074;17.004;2024-03-07T04:34:44;5.18;;;3.58;;
39750;SDS011;37579;51.074;17.004;2024-03-07T04:37:10;4.35;;;3.80;;
39750;SDS011;37579;51.074;17.004;2024-03-07T04:39:37;4.82;;;3.72;;
39750;SDS011;37579;51.074;17.004;2024-03-07T04:42:06;4.72;;;3.53;;
39750;SDS011;37579;51.074;17.004;2024-03-07T04:44:33;4.93;;;3.78;;
39750;SDS011;37579;51.074;17.004;2024-03-07T04:47:04;5.90;;;3.75;;
39750;SDS011;37579;51.074;17.004;2024-03-07T04:49:31;8.23;;;4.20;;
39750;SDS011;37579;51.074;17.004;2024-03-07T04:51:58;4.93;;;3.70;;
39750;SDS011;37579;51.074;17.004;2024-03-07T04:54:27;4.43;;;3.53;;
39750;SDS011;37579;51.074;17.004;2024-03-07T04:56:54;5.47;;;4.05;;
39750;SDS011;37579;51.074;17.004;2024-03-07T04:59:20;6.28;;;3.83;;
39750;SDS011;37579;51.074;17.004;2024-03-07T05:01:47;4.38;;;3.78;;
39750;SDS011;37579;51.074;17.004;2024-03-07T05:04:15;4.80;;;3.60;;
39750;SDS011;37579;51.074;17.004;2024-03-07T05:06:41;3.80;;;3.33;;
39750;SDS011;37579;51.074;17.004;2024-03-07T05:09:08;4.50;;;3.40;;
39750;SDS011;37579;51.074;17.004;2024-03-07T05:11:48;4.55;;;3.55;;
39750;SDS011;37579;51.074;17.004;2024-03-07T05:14:17;4.80;;;3.90;;
39750;SDS011;37579;51.074;17.004;2024-03-07T05:16:43;5.82;;;3.97;;
39750;SDS011;37579;51.074;17.004;2024-03-07T05:19:09;5.60;;;3.90;;
39750;SDS011;37579;51.074;17.004;2024-03-07T05:21:34;5.30;;;3.85;;
39750;SDS011;37579;51.074;17.004;2024-03-07T05:24:05;5.47;;;3.58;;
39750;SDS011;37579;51.074;17.004;2024-03-07T05:26:33;4.55;;;4.07;;
39750;SDS011;37579;51.074;17.004;2024-03-07T05:29:02;4.75;;;3.60;;
39750;SDS011;37579;51.074;17.004;2024-03-07T05:31:38;8.07;;;3.78;;
39750;SDS011;37579;51.074;17.004;2024-03-07T05:34:12;4.85;;;3.40;;
39750;SDS011;37579;51.074;17.004;2024-03-07T05:36:38;3.97;;;3.40;;
39750;SDS011;37579;51.074;17.004;2024-03-07T05:39:14;5.20;;;3.20;;
39750;SDS011;37579;51.074;17.004;2024-03-07T05:41:42;5.53;;;3.92;;
39750;SDS011;37579;51.074;17.004;2024-03-07T05:44:10;4.10;;;3.30;;
39750;SDS011;37579;51.074;17.004;2024-03-07T05:46:40;5.30;;;3.38;;
39750;SDS011;37579;51.074;17.004;2024-03-07T05:49:11;4.93;;;3.33;;
39750;SDS011;37579;51.074;17.004;2024-03-07T05:51:37;6.18;;;3.30;;
39750;SDS011;37579;51.074;17.004;2024-03-07T05:54:03;5.38;;;3.58;;
39750;SDS011;37579;51.074;17.004;2024-03-07T05:56:35;4.15;;;3.30;;
39750;SDS011;37579;51.074;17.004;2024-03-07T05:59:04;4.63;;;3.38;;
39750;SDS011;37579;51.074;17.004;2024-03-07T06:01:32;5.03;;;3.78;;
39750;SDS011;37579;51.074;17.004;2024-03-07T06:04:02;4.97;;;3.60;;
39750;SDS011;37579;51.074;17.004;2024-03-07T06:06:31;7.65;;;3.50;;
39750;SDS011;37579;51.074;17.004;2024-03-07T06:08:58;5.82;;;3.50;;
39750;SDS011;37579;51.074;17.004;2024-03-07T06:11:35;9.18;;;4.28;;
39750;SDS011;37579;51.074;17.004;2024-03-07T06:14:02;8.00;;;4.05;;
39750;SDS011;37579;51.074;17.004;2024-03-07T06:16:30;4.95;;;3.53;;
39750;SDS011;37579;51.074;17.004;2024-03-07T06:19:00;7.63;;;3.90;;
39750;SDS011;37579;51.074;17.004;2024-03-07T06:21:29;6.97;;;4.10;;
39750;SDS011;37579;51.074;17.004;2024-03-07T06:23:58;5.75;;;3.78;;
39750;SDS011;37579;51.074;17.004;2024-03-07T06:26:25;6.13;;;3.67;;
39750;SDS011;37579;51.074;17.004;2024-03-07T06:29:24;5.72;;;3.95;;
39750;SDS011;37579;51.074;17.004;2024-03-07T06:31:51;7.15;;;4.10;;
39750;SDS011;37579;51.074;17.004;2024-03-07T06:34:19;7.85;;;3.63;;
39750;SDS011;37579;51.074;17.004;2024-03-07T06:36:44;5.13;;;3.40;;
39750;SDS011;37579;51.074;17.004;2024-03-07T06:39:10;6.57;;;3.53;;
39750;SDS011;37579;51.074;17.004;2024-03-07T06:41:37;7.10;;;3.70;;
39750;SDS011;37579;51.074;17.004;2024-03-07T06:44:03;7.32;;;3.65;;
39750;SDS011;37579;51.074;17.004;2024-03-07T06:46:29;7.93;;;3.92;;
39750;SDS011;37579;51.074;17.004;2024-03-07T06:48:57;6.30;;;3.70;;
39750;SDS011;37579;51.074;17.004;2024-03-07T06:51:23;6.78;;;3.22;;
39750;SDS011;37579;51.074;17.004;2024-03-07T06:53:50;5.88;;;3.42;;
39750;SDS011;37579;51.074;17.004;2024-03-07T06:56:16;5.50;;;3.53;;
39750;SDS011;37579;51.074;17.004;2024-03-07T06:58:42;4.47;;;3.45;;
39750;SDS011;37579;51.074;17.004;2024-03-07T07:01:11;9.32;;;3.85;;
39750;SDS011;37579;51.074;17.004;2024-03-07T07:03:40;5.35;;;3.30;;
39750;SDS011;37579;51.074;17.004;2024-03-07T07:06:08;6.10;;;3.75;;
39750;SDS011;37579;51.074;17.004;2024-03-07T07:08:35;6.28;;;3.53;;
39750;SDS011;37579;51.074;17.004;2024-03-07T07:11:01;5.53;;;3.80;;
39750;SDS011;37579;51.074;17.004;2024-03-07T07:13:29;5.93;;;3.10;;
39750;SDS011;37579;51.074;17.004;2024-03-07T07:15:55;6.50;;;3.40;;
39750;SDS011;37579;51.074;17.004;2024-03-07T07:18:21;6.57;;;3.67;;
39750;SDS011;37579;51.074;17.004;2024-03-07T07:20:49;9.27;;;3.78;;
39750;SDS011;37579;51.074;17.004;2024-03-07T07:23:17;6.78;;;3.55;;
39750;SDS011;37579;51.074;17.004;2024-03-07T07:25:44;5.40;;;3.13;;
39750;SDS011;37579;51.074;17.004;2024-03-07T07:28:10;6.95;;;3.50;;
39750;SDS011;37579;51.074;17.004;2024-03-07T07:30:36;5.68;;;3.15;;
39750;SDS011;37579;51.074;17.004;2024-03-07T07:33:02;6.50;;;4.50;;
39750;SDS011;37579;51.074;17.004;2024-03-07T07:35:29;4.75;;;3.25;;
39750;SDS011;37579;51.074;17.004;2024-03-07T07:37:54;7.30;;;3.58;;
39750;SDS011;37579;51.074;17.004;2024-03-07T07:40:23;5.55;;;3.63;;
39750;SDS011;37579;51.074;17.004;2024-03-07T07:42:52;5.88;;;3.33;;
39750;SDS011;37579;51.074;17.004;2024-03-07T07:45:19;4.78;;;3.30;;
39750;SDS011;37579;51.074;17.004;2024-03-07T07:47:47;5.72;;;3.58;;
39750;SDS011;37579;51.074;17.004;2024-03-07T07:50:15;4.78;;;3.30;;
39750;SDS011;37579;51.074;17.004;2024-03-07T07:55:13;4.68;;;3.70;;
39750;SDS011;37579;51.074;17.004;2024-03-07T07:57:43;4.63;;;3.03;;
39750;SDS011;37579;51.074;17.004;2024-03-07T08:00:11;4.90;;;3.35;;
39750;SDS011;37579;51.074;17.004;2024-03-07T08:02:37;6.25;;;3.30;;
39750;SDS011;37579;51.074;17.004;2024-03-07T08:05:03;5.72;;;3.40;;
39750;SDS011;37579;51.074;17.004;2024-03-07T08:07:30;4.93;;;3.10;;
39750;SDS011;37579;51.074;17.004;2024-03-07T08:09:56;7.47;;;3.20;;
39750;SDS011;37579;51.074;17.004;2024-03-07T08:12:22;6.20;;;3.30;;
39750;SDS011;37579;51.074;17.004;2024-03-07T08:14:48;4.78;;;3.60;;
39750;SDS011;37579;51.074;17.004;2024-03-07T08:17:13;6.40;;;3.30;;
39750;SDS011;37579;51.074;17.004;2024-03-07T08:19:40;4.93;;;3.17;;
39750;SDS011;37579;51.074;17.004;2024-03-07T08:22:07;5.80;;;3.53;;
39750;SDS011;37579;51.074;17.004;2024-03-07T08:24:35;6.40;;;4.05;;
39750;SDS011;37579;51.074;17.004;2024-03-07T08:27:00;8.52;;;4.32;;
39750;SDS011;37579;51.074;17.004;2024-03-07T08:29:27;7.43;;;4.10;;
39750;SDS011;37579;51.074;17.004;2024-03-07T08:31:53;8.05;;;4.22;;
39750;SDS011;37579;51.074;17.004;2024-03-07T08:34:18;6.18;;;3.88;;
39750;SDS011;37579;51.074;17.004;2024-03-07T08:36:44;8.73;;;4.38;;
39750;SDS011;37579;51.074;17.004;2024-03-07T08:39:12;6.18;;;4.15;;
39750;SDS011;37579;51.074;17.004;2024-03-07T08:41:46;8.65;;;4.13;;
39750;SDS011;37579;51.074;17.004;2024-03-07T08:44:12;6.57;;;4.10;;
39750;SDS011;37579;51.074;17.004;2024-03-07T08:46:38;6.85;;;3.90;;
39750;SDS011;37579;51.074;17.004;2024-03-07T08:49:04;5.82;;;3.90;;
39750;SDS011;37579;51.074;17.004;2024-03-07T08:51:30;7.30;;;4.70;;
39750;SDS011;37579;51.074;17.004;2024-03-07T08:53:57;7.63;;;4.20;;
39750;SDS011;37579;51.074;17.004;2024-03-07T08:56:22;7.32;;;4.55;;
39750;SDS011;37579;51.074;17.004;2024-03-07T08:58:48;7.00;;;4.10;;
39750;SDS011;37579;51.074;17.004;2024-03-07T09:01:14;7.55;;;4.28;;
39750;SDS011;37579;51.074;17.004;2024-03-07T09:03:40;6.00;;;3.70;;
39750;SDS011;37579;51.074;17.004;2024-03-07T09:06:06;7.90;;;4.20;;
39750;SDS011;37579;51.074;17.004;2024-03-07T09:08:32;6.63;;;4.20;;
39750;SDS011;37579;51.074;17.004;2024-03-07T09:10:57;7.22;;;4.03;;
39750;SDS011;37579;51.074;17.004;2024-03-07T09:13:23;6.38;;;4.30;;
39750;SDS011;37579;51.074;17.004;2024-03-07T09:15:49;7.72;;;4.28;;
39750;SDS011;37579;51.074;17.004;2024-03-07T09:18:15;7.93;;;4.40;;
39750;SDS011;37579;51.074;17.004;2024-03-07T09:20:41;8.90;;;4.20;;
39750;SDS011;37579;51.074;17.004;2024-03-07T09:23:07;8.40;;;4.20;;
39750;SDS011;37579;51.074;17.004;2024-03-07T09:25:33;6.47;;;4.10;;
39750;SDS011;37579;51.074;17.004;2024-03-07T09:27:59;6.38;;;4.32;;
39750;SDS011;37579;51.074;17.004;2024-03-07T09:30:26;7.72;;;4.38;;
39750;SDS011;37579;51.074;17.004;2024-03-07T09:32:56;9.23;;;4.20;;
39750;SDS011;37579;51.074;17.004;2024-03-07T09:35:22;9.30;;;4.30;;
39750;SDS011;37579;51.074;17.004;2024-03-07T09:37:48;6.45;;;4.32;;
39750;SDS011;37579;51.074;17.004;2024-03-07T09:40:13;7.50;;;4.40;;
39750;SDS011;37579;51.074;17.004;2024-03-07T09:45:09;7.78;;;4.25;;
39750;SDS011;37579;51.074;17.004;2024-03-07T09:47:48;7.00;;;4.03;;
39750;SDS011;37579;51.074;17.004;2024-03-07T09:50:16;6.88;;;4.15;;
39750;SDS011;37579;51.074;17.004;2024-03-07T09:52:44;8.68;;;4.28;;
39750;SDS011;37579;51.074;17.004;2024-03-07T09:55:11;8.07;;;4.43;;
39750;SDS011;37579;51.074;17.004;2024-03-07T09:57:38;6.85;;;4.05;;
39750;SDS011;37579;51.074;17.004;2024-03-07T10:00:05;5.97;;;3.95;;
39750;SDS011;37579;51.074;17.004;2024-03-07T10:02:37;7.43;;;3.80;;
39750;SDS011;37579;51.074;17.004;2024-03-07T10:05:06;7.38;;;3.58;;
39750;SDS011;37579;51.074;17.004;2024-03-07T10:07:35;6.55;;;4.30;;
39750;SDS011;37579;51.074;17.004;2024-03-07T10:10:01;5.85;;;3.83;;
39750;SDS011;37579;51.074;17.004;2024-03-07T10:12:35;5.28;;;3.50;;
39750;SDS011;37579;51.074;17.004;2024-03-07T10:15:03;6.30;;;3.72;;
39750;SDS011;37579;51.074;17.004;2024-03-07T10:17:35;5.25;;;3.78;;
39750;SDS011;37579;51.074;17.004;2024-03-07T10:20:02;7.80;;;3.67;;
39750;SDS011;37579;51.074;17.004;2024-03-07T10:22:28;8.05;;;3.65;;
39750;SDS011;37579;51.074;17.004;2024-03-07T10:24:55;7.65;;;4.00;;
39750;SDS011;37579;51.074;17.004;2024-03-07T10:27:25;6.15;;;3.90;;
39750;SDS011;37579;51.074;17.004;2024-03-07T10:29:54;5.05;;;3.70;;
39750;SDS011;37579;51.074;17.004;2024-03-07T10:32:21;7.82;;;3.95;;
39750;SDS011;37579;51.074;17.004;2024-03-07T10:34:51;9.15;;;3.88;;
39750;SDS011;37579;51.074;17.004;2024-03-07T10:37:17;6.72;;;4.18;;
39750;SDS011;37579;51.074;17.004;2024-03-07T10:39:46;6.68;;;4.00;;
39750;SDS011;37579;51.074;17.004;2024-03-07T10:42:19;7.75;;;4.15;;
39750;SDS011;37579;51.074;17.004;2024-03-07T10:44:50;9.52;;;3.95;;
39750;SDS011;37579;51.074;17.004;2024-03-07T10:47:21;7.85;;;3.65;;
39750;SDS011;37579;51.074;17.004;2024-03-07T10:58:31;10.00;;;4.13;;
39750;SDS011;37579;51.074;17.004;2024-03-07T11:01:10;10.55;;;4.47;;
39750;SDS011;37579;51.074;17.004;2024-03-07T11:03:38;8.68;;;4.45;;
39750;SDS011;37579;51.074;17.004;2024-03-07T11:06:05;8.48;;;3.80;;
39750;SDS011;37579;51.074;17.004;2024-03-07T11:08:37;10.13;;;4.07;;
39750;SDS011;37579;51.074;17.004;2024-03-07T11:11:03;12.68;;;4.63;;
39750;SDS011;37579;51.074;17.004;2024-03-07T11:13:33;8.20;;;4.55;;
39750;SDS011;37579;51.074;17.004;2024-03-07T11:15:59;9.30;;;4.30;;
39750;SDS011;37579;51.074;17.004;2024-03-07T11:18:26;10.50;;;4.63;;
39750;SDS011;37579;51.074;17.004;2024-03-07T11:20:53;11.25;;;4.95;;
39750;SDS011;37579;51.074;17.004;2024-03-07T11:23:26;11.60;;;6.10;;
39750;SDS011;37579;51.074;17.004;2024-03-07T11:26:07;12.80;;;6.45;;
39750;SDS011;37579;51.074;17.004;2024-03-07T11:28:40;10.45;;;6.32;;
39750;SDS011;37579;51.074;17.004;2024-03-07T11:33:40;11.55;;;6.07;;
39750;SDS011;37579;51.074;17.004;2024-03-07T11:36:09;11.45;;;5.40;;
39750;SDS011;37579;51.074;17.004;2024-03-07T11:38:47;11.73;;;5.13;;
39750;SDS011;37579;51.074;17.004;2024-03-07T11:41:18;9.25;;;4.90;;
39750;SDS011;37579;51.074;17.004;2024-03-07T11:43:44;9.50;;;4.70;;
39750;SDS011;37579;51.074;17.004;2024-03-07T11:46:11;15.00;;;10.15;;
39750;SDS011;37579;51.074;17.004;2024-03-07T11:48:41;13.02;;;10.45;;
39750;SDS011;37579;51.074;17.004;2024-03-07T11:51:08;14.15;;;11.00;;
39750;SDS011;37579;51.074;17.004;2024-03-07T11:53:38;12.50;;;8.50;;
39750;SDS011;37579;51.074;17.004;2024-03-07T11:56:04;10.90;;;6.93;;
39750;SDS011;37579;51.074;17.004;2024-03-07T11:58:41;13.30;;;6.95;;
39750;SDS011;37579;51.074;17.004;2024-03-07T12:01:09;13.55;;;7.05;;
39750;SDS011;37579;51.074;17.004;2024-03-07T12:03:38;11.27;;;6.85;;
39750;SDS011;37579;51.074;17.004;2024-03-07T12:06:04;12.02;;;6.72;;
39750;SDS011;37579;51.074;17.004;2024-03-07T12:08:30;17.10;;;8.63;;
39750;SDS011;37579;51.074;17.004;2024-03-07T12:10:56;13.60;;;7.50;;
39750;SDS011;37579;51.074;17.004;2024-03-07T12:13:22;21.38;;;9.02;;
39750;SDS011;37579;51.074;17.004;2024-03-07T12:15:50;20.60;;;9.32;;
39750;SDS011;37579;51.074;17.004;2024-03-07T12:18:20;25.40;;;9.45;;
39750;SDS011;37579;51.074;17.004;2024-03-07T12:20:48;31.75;;;11.10;;
39750;SDS011;37579;51.074;17.004;2024-03-07T12:23:19;27.48;;;10.32;;
39750;SDS011;37579;51.074;17.004;2024-03-07T12:25:58;32.85;;;11.85;;
39750;SDS011;37579;51.074;17.004;2024-03-07T12:28:27;32.70;;;12.52;;
39750;SDS011;37579;51.074;17.004;2024-03-07T12:30:58;32.67;;;11.55;;
39750;SDS011;37579;51.074;17.004;2024-03-07T12:33:27;36.55;;;11.45;;
39750;SDS011;37579;51.074;17.004;2024-03-07T12:35:54;36.03;;;11.35;;
39750;SDS011;37579;51.074;17.004;2024-03-07T12:38:31;34.97;;;12.27;;
39750;SDS011;37579;51.074;17.004;2024-03-07T12:41:06;33.63;;;11.60;;
39750;SDS011;37579;51.074;17.004;2024-03-07T12:43:39;32.60;;;12.05;;
39750;SDS011;37579;51.074;17.004;2024-03-07T12:46:07;29.77;;;10.30;;
39750;SDS011;37579;51.074;17.004;2024-03-07T12:48:37;28.35;;;11.02;;
39750;SDS011;37579;51.074;17.004;2024-03-07T12:51:04;29.17;;;10.43;;
39750;SDS011;37579;51.074;17.004;2024-03-07T12:53:30;31.45;;;10.70;;
39750;SDS011;37579;51.074;17.004;2024-03-07T12:55:56;24.63;;;10.95;;
39750;SDS011;37579;51.074;17.004;2024-03-07T12:58:22;23.63;;;9.98;;
39750;SDS011;37579;51.074;17.004;2024-03-07T13:00:54;25.20;;;10.07;;
39750;SDS011;37579;51.074;17.004;2024-03-07T13:03:23;28.87;;;10.13;;
39750;SDS011;37579;51.074;17.004;2024-03-07T13:05:58;24.15;;;8.82;;
39750;SDS011;37579;51.074;17.004;2024-03-07T13:08:27;27.52;;;9.73;;
39750;SDS011;37579;51.074;17.004;2024-03-07T13:10:54;20.63;;;8.75;;
39750;SDS011;37579;51.074;17.004;2024-03-07T13:13:20;19.58;;;8.95;;
39750;SDS011;37579;51.074;17.004;2024-03-07T13:15:46;22.80;;;8.60;;
39750;SDS011;37579;51.074;17.004;2024-03-07T13:18:12;21.73;;;9.55;;
39750;SDS011;37579;51.074;17.004;2024-03-07T13:20:38;19.13;;;8.70;;
39750;SDS011;37579;51.074;17.004;2024-03-07T13:23:08;18.48;;;8.43;;
39750;SDS011;37579;51.074;17.004;2024-03-07T13:25:35;17.98;;;8.57;;
39750;SDS011;37579;51.074;17.004;2024-03-07T13:30:38;17.52;;;7.55;;
39750;SDS011;37579;51.074;17.004;2024-03-07T13:33:05;19.88;;;8.18;;
39750;SDS011;37579;51.074;17.004;2024-03-07T13:35:31;21.08;;;8.65;;
39750;SDS011;37579;51.074;17.004;2024-03-07T13:37:57;18.42;;;8.57;;
39750;SDS011;37579;51.074;17.004;2024-03-07T13:40:23;20.45;;;8.88;;
39750;SDS011;37579;51.074;17.004;2024-03-07T13:42:51;21.50;;;9.30;;
39750;SDS011;37579;51.074;17.004;2024-03-07T13:45:22;25.05;;;8.88;;
39750;SDS011;37579;51.074;17.004;2024-03-07T13:47:52;26.42;;;9.32;;
39750;SDS011;37579;51.074;17.004;2024-03-07T13:50:19;27.48;;;9.85;;
39750;SDS011;37579;51.074;17.004;2024-03-07T13:52:56;29.10;;;10.00;;
39750;SDS011;37579;51.074;17.004;2024-03-07T14:21:47;25.88;;;8.57;;
39750;SDS011;37579;51.074;17.004;2024-03-07T14:29:59;23.08;;;8.38;;
39750;SDS011;37579;51.074;17.004;2024-03-07T14:32:56;23.95;;;8.25;;
39750;SDS011;37579;51.074;17.004;2024-03-07T14:35:32;23.50;;;8.48;;
39750;SDS011;37579;51.074;17.004;2024-03-07T14:39:01;17.90;;;7.50;;
39750;SDS011;37579;51.074;17.004;2024-03-07T14:41:17;17.85;;;7.60;;
39750;SDS011;37579;51.074;17.004;2024-03-07T14:43:44;16.58;;;7.95;;
39750;SDS011;37579;51.074;17.004;2024-03-07T14:46:11;17.45;;;7.60;;
39750;SDS011;37579;51.074;17.004;2024-03-07T14:48:39;23.48;;;8.10;;
39750;SDS011;37579;51.074;17.004;2024-03-07T14:51:06;18.00;;;6.93;;
39750;SDS011;37579;51.074;17.004;2024-03-07T14:53:34;18.38;;;7.53;;
39750;SDS011;37579;51.074;17.004;2024-03-07T14:56:00;20.42;;;7.78;;
39750;SDS011;37579;51.074;17.004;2024-03-07T14:58:26;24.17;;;7.43;;
39750;SDS011;37579;51.074;17.004;2024-03-07T15:00:51;20.75;;;8.00;;
39750;SDS011;37579;51.074;17.004;2024-03-07T15:03:19;22.10;;;7.22;;
39750;SDS011;37579;51.074;17.004;2024-03-07T15:05:45;23.08;;;7.70;;
39750;SDS011;37579;51.074;17.004;2024-03-07T15:08:16;18.52;;;7.50;;
39750;SDS011;37579;51.074;17.004;2024-03-07T15:10:47;20.02;;;7.85;;
39750;SDS011;37579;51.074;17.004;2024-03-07T15:13:17;22.02;;;7.35;;
39750;SDS011;37579;51.074;17.004;2024-03-07T15:15:43;15.00;;;7.53;;
39750;SDS011;37579;51.074;17.004;2024-03-07T15:18:09;16.23;;;6.72;;
39750;SDS011;37579;51.074;17.004;2024-03-07T15:20:35;17.90;;;6.70;;
39750;SDS011;37579;51.074;17.004;2024-03-07T15:23:02;16.10;;;6.63;;
39750;SDS011;37579;51.074;17.004;2024-03-07T15:25:28;17.80;;;7.32;;